Time;durP1;ratioP1;P1;durP2;ratioP2;P2;SDS_P1;SDS_P2;PMS_P1;PMS_P2;Temp;Humidity;BMP_temperature;BMP_pressure;BME280_temperature;BME280_humidity;BME280_pressure;Samples;Min_cycle;Max_cycle;Signal;HPM_P1;HPM_P2
2022/08/26 00:01:21;;;;;;;5.17;1.70;;;20.70;99.90;;;;;;5061799;28;20075;-37
2022/08/26 00:03:46;;;;;;;7.75;1.52;;;20.70;99.90;;;;;;5061678;28;20056;-40
2022/08/26 00:06:13;;;;;;;6.22;1.45;;;20.70;99.90;;;;;;5064694;28;20701;-35
2022/08/26 00:08:39;;;;;;;6.00;1.70;;;20.70;99.90;;;;;;5061133;28;20634;-38
2022/08/26 00:11:06;;;;;;;5.93;1.95;;;20.60;99.90;;;;;;5065233;28;20082;-38
2022/08/26 00:13:32;;;;;;;7.03;2.37;;;20.70;99.90;;;;;;5059962;28;20037;-37
2022/08/26 00:15:58;;;;;;;7.63;1.92;;;20.70;99.90;;;;;;5062195;28;20082;-40
2022/08/26 00:18:24;;;;;;;5.18;1.35;;;20.70;99.90;;;;;;5059761;28;20408;-38
2022/08/26 00:20:50;;;;;;;3.50;1.50;;;20.70;99.90;;;;;;5063610;28;20777;-38
2022/08/26 00:23:16;;;;;;;4.00;2.05;;;20.70;99.90;;;;;;5064870;28;20127;-36
2022/08/26 00:25:42;;;;;;;4.53;2.15;;;20.60;99.90;;;;;;5058704;28;20025;-38
2022/08/26 00:28:08;;;;;;;6.57;2.28;;;20.70;99.90;;;;;;5061592;28;20147;-36
2022/08/26 00:30:34;;;;;;;2.63;1.35;;;20.70;99.90;;;;;;5063677;28;20480;-39
2022/08/26 00:33:00;;;;;;;10.43;2.15;;;20.70;99.90;;;;;;5062896;28;20030;-38
2022/08/26 00:35:26;;;;;;;8.90;2.03;;;20.70;99.90;;;;;;5061974;28;20526;-38
2022/08/26 00:37:53;;;;;;;8.95;1.92;;;20.70;99.90;;;;;;5062822;28;20287;-38
2022/08/26 00:40:24;;;;;;;4.27;1.80;;;20.70;99.90;;;;;;5061394;28;20032;-37
2022/08/26 00:42:50;;;;;;;8.48;1.55;;;20.70;99.90;;;;;;5061767;28;20290;-38
2022/08/26 00:45:16;;;;;;;3.85;1.10;;;20.70;99.90;;;;;;5060864;28;20473;-37
2022/08/26 00:47:46;;;;;;;6.72;1.27;;;20.70;99.90;;;;;;5061358;28;20028;-34
2022/08/26 00:50:15;;;;;;;14.35;1.67;;;20.70;99.90;;;;;;5063437;28;20471;-60
2022/08/26 00:52:43;;;;;;;7.75;1.73;;;20.70;99.90;;;;;;5057414;28;20028;-47
2022/08/26 00:55:15;;;;;;;4.68;1.40;;;20.70;99.90;;;;;;5058888;28;20457;-38
2022/08/26 00:57:41;;;;;;;3.85;1.60;;;20.70;99.90;;;;;;5062168;28;20450;-37
2022/08/26 01:00:13;;;;;;;7.30;1.13;;;20.70;99.90;;;;;;5058482;28;20032;-37
2022/08/26 01:02:39;;;;;;;3.63;1.50;;;20.70;99.90;;;;;;5057892;28;20021;-40
2022/08/26 01:05:07;;;;;;;4.35;1.27;;;20.70;99.90;;;;;;5066667;28;20041;-38
2022/08/26 01:07:32;;;;;;;8.30;1.58;;;20.70;99.90;;;;;;5063217;28;20025;-38
2022/08/26 01:10:06;;;;;;;7.90;1.20;;;20.70;99.90;;;;;;5064179;28;20401;-34
2022/08/26 01:12:37;;;;;;;5.32;1.23;;;20.70;99.90;;;;;;5058776;28;20515;-38
2022/08/26 01:15:04;;;;;;;3.20;1.48;;;20.60;99.90;;;;;;5059012;28;20506;-34
2022/08/26 01:17:30;;;;;;;2.55;1.80;;;20.70;99.90;;;;;;5060646;28;20491;-40
2022/08/26 01:20:07;;;;;;;6.07;1.80;;;20.70;99.90;;;;;;5064014;28;20021;-42
2022/08/26 01:22:58;;;;;;;2.58;0.98;;;20.70;99.90;;;;;;5062258;28;20033;-34
2022/08/26 01:25:28;;;;;;;4.00;1.40;;;20.70;99.90;;;;;;5059663;28;20037;-38
2022/08/26 01:27:56;;;;;;;5.43;1.60;;;20.70;99.90;;;;;;5059401;28;20476;-37
2022/08/26 01:30:24;;;;;;;3.05;1.08;;;20.70;99.90;;;;;;5062851;28;20742;-38
2022/08/26 01:32:52;;;;;;;6.53;1.20;;;20.70;99.90;;;;;;5059339;28;20074;-37
2022/08/26 01:35:19;;;;;;;0.93;0.90;;;20.60;99.90;;;;;;5061136;28;20024;-38
2022/08/26 01:37:48;;;;;;;5.00;1.10;;;20.60;99.90;;;;;;5067259;28;20024;-39
2022/08/26 01:40:19;;;;;;;6.30;1.25;;;20.70;99.90;;;;;;5065581;28;20085;-36
2022/08/26 01:42:46;;;;;;;3.13;1.10;;;20.70;99.90;;;;;;5065804;28;20017;-42
2022/08/26 01:45:17;;;;;;;4.95;1.30;;;20.70;99.90;;;;;;5065392;28;20353;-37
2022/08/26 01:47:43;;;;;;;4.82;1.15;;;20.70;99.90;;;;;;5066443;28;20522;-38
2022/08/26 01:50:16;;;;;;;5.38;1.33;;;20.60;99.90;;;;;;5065599;28;20028;-37
2022/08/26 01:52:45;;;;;;;4.45;1.00;;;20.60;99.90;;;;;;5068835;28;20044;-40
2022/08/26 01:55:14;;;;;;;4.00;0.73;;;20.60;99.90;;;;;;5064915;28;20041;-38
2022/08/26 01:57:44;;;;;;;6.93;1.67;;;20.60;99.90;;;;;;5062707;28;20500;-37
2022/08/26 02:00:14;;;;;;;1.17;1.05;;;20.60;99.90;;;;;;5066686;28;20099;-43
2022/08/26 02:02:42;;;;;;;6.18;1.27;;;20.60;99.90;;;;;;5065148;28;20035;-54
2022/08/26 02:05:10;;;;;;;3.42;1.13;;;20.60;99.90;;;;;;5065541;28;20096;-38
2022/08/26 02:07:37;;;;;;;1.30;0.75;;;20.60;99.90;;;;;;5067240;28;20056;-39
2022/08/26 02:10:04;;;;;;;3.90;0.98;;;20.60;99.90;;;;;;5064492;28;20074;-38
2022/08/26 02:12:30;;;;;;;3.58;1.02;;;20.60;99.90;;;;;;5066273;28;20599;-39
2022/08/26 02:15:00;;;;;;;6.22;1.05;;;20.60;99.90;;;;;;5064171;28;20025;-38
2022/08/26 02:17:32;;;;;;;7.75;1.13;;;20.60;99.90;;;;;;5064243;28;20252;-37
2022/08/26 02:19:58;;;;;;;6.82;1.23;;;20.60;99.90;;;;;;5062878;28;20025;-32
2022/08/26 02:22:23;;;;;;;3.17;0.90;;;20.50;99.90;;;;;;5062936;28;20572;-37
2022/08/26 02:24:58;;;;;;;2.83;0.68;;;20.50;99.90;;;;;;5058128;28;20070;-33
2022/08/26 02:27:28;;;;;;;3.80;1.38;;;20.40;99.90;;;;;;5062127;28;20047;-36
2022/08/26 02:30:05;;;;;;;7.55;1.10;;;20.20;99.90;;;;;;5065076;28;20697;-39
2022/08/26 02:32:31;;;;;;;3.92;0.93;;;20.20;99.90;;;;;;5063692;28;20039;-49
2022/08/26 02:34:56;;;;;;;3.17;1.05;;;20.20;99.90;;;;;;5064122;28;22094;-39
2022/08/26 02:37:22;;;;;;;10.88;1.85;;;20.20;99.90;;;;;;5057873;28;20396;-40
2022/08/26 02:39:48;;;;;;;5.28;0.88;;;20.10;99.90;;;;;;5063900;28;20027;-40
2022/08/26 02:42:13;;;;;;;1.48;0.93;;;20.10;99.90;;;;;;5066898;28;21469;-39
2022/08/26 02:44:39;;;;;;;2.65;1.20;;;20.10;99.90;;;;;;5062648;28;20464;-40
2022/08/26 02:47:06;;;;;;;4.55;1.08;;;20.10;99.90;;;;;;5067265;28;20090;-38
2022/08/26 02:49:31;;;;;;;6.38;1.15;;;20.10;99.90;;;;;;5064500;28;20104;-39
2022/08/26 02:51:59;;;;;;;5.10;1.25;;;20.10;99.90;;;;;;5063255;28;20033;-38
2022/08/26 02:54:25;;;;;;;4.40;0.80;;;20.10;99.90;;;;;;5065509;28;20487;-61
2022/08/26 02:56:51;;;;;;;8.35;1.25;;;20.10;99.90;;;;;;5064991;28;20047;-38
2022/08/26 02:59:17;;;;;;;3.20;1.00;;;20.10;99.90;;;;;;5063094;28;20064;-49
2022/08/26 03:01:43;;;;;;;3.95;0.98;;;20.10;99.90;;;;;;5065317;28;20418;-41
2022/08/26 03:04:11;;;;;;;1.65;0.65;;;20.10;99.90;;;;;;5066744;28;20052;-38
2022/08/26 03:06:37;;;;;;;5.13;0.88;;;20.10;99.90;;;;;;5064969;28;20539;-40
2022/08/26 03:09:04;;;;;;;2.08;0.60;;;20.10;99.90;;;;;;5064034;28;20078;-40
2022/08/26 03:11:30;;;;;;;1.10;0.87;;;20.10;99.90;;;;;;5062387;28;20464;-31
2022/08/26 03:13:56;;;;;;;3.60;0.90;;;20.10;99.90;;;;;;5063383;28;20275;-33
2022/08/26 03:16:22;;;;;;;5.07;1.25;;;20.10;99.90;;;;;;5062916;28;20107;-31
2022/08/26 03:18:48;;;;;;;3.65;0.80;;;20.10;99.90;;;;;;5065717;28;20221;-35
2022/08/26 03:21:16;;;;;;;3.65;0.73;;;20.10;99.90;;;;;;5065806;28;20037;-38
2022/08/26 03:23:43;;;;;;;1.77;0.90;;;20.10;99.90;;;;;;5064110;28;20020;-43
2022/08/26 03:26:10;;;;;;;1.27;0.65;;;20.20;99.90;;;;;;5063254;28;20507;-38
2022/08/26 03:30:38;;;;;;;2.97;0.70;;;20.10;99.90;;;;;;5066327;28;20488;-36
2022/08/26 03:31:21;;;;;;;5.35;1.67;;;20.10;99.90;;;;;;5061661;28;20109;-32
2022/08/26 03:33:47;;;;;;;2.08;1.08;;;20.00;99.90;;;;;;5060958;28;20052;-38
2022/08/26 03:36:12;;;;;;;3.13;0.70;;;20.10;99.90;;;;;;5062140;28;20104;-40
2022/08/26 03:38:38;;;;;;;8.20;0.90;;;20.10;99.90;;;;;;5062401;28;20471;-40
2022/08/26 03:41:04;;;;;;;2.42;0.90;;;20.10;99.90;;;;;;5064887;28;20055;-40
2022/08/26 03:43:29;;;;;;;3.25;0.80;;;20.10;99.90;;;;;;5062140;28;21429;-38
2022/08/26 03:45:55;;;;;;;0.90;0.65;;;20.00;99.90;;;;;;5060251;28;20112;-36
2022/08/26 03:48:20;;;;;;;2.20;0.65;;;20.10;99.90;;;;;;5056721;28;20031;-37
2022/08/26 03:50:46;;;;;;;1.50;0.50;;;20.10;99.90;;;;;;5054251;28;20032;-39
2022/08/26 03:53:11;;;;;;;2.58;0.90;;;20.10;99.90;;;;;;5063072;28;20032;-39
2022/08/26 03:55:37;;;;;;;2.83;0.80;;;20.10;99.90;;;;;;5061790;28;20024;-38
2022/08/26 03:58:03;;;;;;;5.13;1.00;;;20.10;99.90;;;;;;5063382;28;20430;-37
2022/08/26 04:00:29;;;;;;;4.25;1.20;;;20.10;99.90;;;;;;5061702;28;20020;-46
2022/08/26 04:02:54;;;;;;;4.47;0.75;;;20.10;99.90;;;;;;5059883;28;20017;-37
2022/08/26 04:05:22;;;;;;;1.13;0.82;;;20.10;99.90;;;;;;5064512;28;20029;-35
2022/08/26 04:07:47;;;;;;;6.30;0.95;;;20.10;99.90;;;;;;5064829;28;20025;-38
2022/08/26 04:10:16;;;;;;;6.68;1.17;;;20.10;99.90;;;;;;5064040;28;20411;-33
2022/08/26 04:12:42;;;;;;;7.22;0.88;;;20.10;99.90;;;;;;5063096;28;20107;-44
2022/08/26 04:15:11;;;;;;;3.28;0.65;;;20.10;99.90;;;;;;5055481;28;20502;-35
2022/08/26 04:17:37;;;;;;;1.85;0.60;;;20.10;99.90;;;;;;5060361;28;20540;-38
2022/08/26 04:20:05;;;;;;;6.43;1.05;;;20.00;99.90;;;;;;5061995;28;20165;-34
2022/08/26 04:22:30;;;;;;;4.05;0.80;;;20.00;99.90;;;;;;5063898;28;20875;-38
2022/08/26 04:24:56;;;;;;;9.32;0.90;;;20.00;99.90;;;;;;5055938;28;20162;-38
2022/08/26 04:27:22;;;;;;;3.50;1.23;;;20.00;99.90;;;;;;5061064;28;20032;-33
2022/08/26 04:29:48;;;;;;;2.25;0.52;;;20.00;99.90;;;;;;5063411;28;20324;-36
2022/08/26 04:32:14;;;;;;;1.75;0.60;;;20.00;99.90;;;;;;5062888;28;20032;-37
2022/08/26 04:34:40;;;;;;;4.97;0.63;;;20.00;99.90;;;;;;5056212;28;20111;-36
2022/08/26 04:37:07;;;;;;;1.80;0.82;;;19.90;99.90;;;;;;5061916;28;20495;-33
2022/08/26 04:39:33;;;;;;;2.03;0.68;;;19.90;99.90;;;;;;5059401;28;20040;-32
2022/08/26 04:41:59;;;;;;;4.50;0.60;;;19.90;99.90;;;;;;5061234;28;20032;-35
2022/08/26 04:44:27;;;;;;;2.70;0.55;;;19.90;99.90;;;;;;5062517;28;20021;-36
2022/08/26 04:46:53;;;;;;;;;;;19.80;99.90;;;;;;5064280;28;20484;-34
2022/08/26 04:49:19;;;;;;;5.90;0.70;;;19.90;99.90;;;;;;5062001;28;19919;-39
2022/08/26 04:51:45;;;;;;;7.32;1.02;;;19.80;99.90;;;;;;5062841;28;20480;-44
2022/08/26 04:54:12;;;;;;;5.32;1.20;;;19.80;99.90;;;;;;5061302;28;20036;-43
2022/08/26 04:56:42;;;;;;;4.30;0.98;;;19.80;99.90;;;;;;5062956;28;20043;-38
2022/08/26 04:59:10;;;;;;;6.38;0.80;;;19.90;99.90;;;;;;5061087;28;20029;-38
2022/08/26 05:01:37;;;;;;;7.32;0.73;;;19.80;99.90;;;;;;5063551;28;20494;-39
2022/08/26 05:04:03;;;;;;;2.90;0.68;;;19.90;99.90;;;;;;5065916;28;20032;-39
2022/08/26 05:06:29;;;;;;;4.38;0.93;;;19.80;99.90;;;;;;5064532;28;20012;-41
2022/08/26 05:09:14;;;;;;;7.22;1.25;;;19.90;99.90;;;;;;5062933;28;20039;-41
2022/08/26 05:11:40;;;;;;;3.75;0.68;;;19.80;99.90;;;;;;5064092;28;20389;-36
2022/08/26 05:16:50;;;;;;;5.70;0.70;;;19.70;99.90;;;;;;5065367;28;20142;-42
2022/08/26 05:19:16;;;;;;;9.23;1.63;;;19.70;99.90;;;;;;5069246;28;20035;-38
2022/08/26 05:21:43;;;;;;;6.95;1.08;;;19.70;99.90;;;;;;5065948;28;20099;-40
2022/08/26 05:24:11;;;;;;;5.97;1.20;;;19.80;99.90;;;;;;5062696;28;20032;-39
2022/08/26 05:26:36;;;;;;;3.10;1.15;;;19.80;99.90;;;;;;5067428;28;20474;-38
2022/08/26 05:29:03;;;;;;;7.93;0.95;;;19.80;99.90;;;;;;5064030;28;20082;-39
2022/08/26 05:31:30;;;;;;;4.70;1.10;;;19.80;99.90;;;;;;5065205;28;20028;-39
2022/08/26 05:33:56;;;;;;;;;;;19.90;99.90;;;;;;5068098;28;20028;-39
2022/08/26 05:36:24;;;;;;;4.65;0.70;;;19.90;99.90;;;;;;5067585;28;20281;-37
2022/08/26 05:38:50;;;;;;;5.32;0.70;;;19.80;99.90;;;;;;5067809;28;20021;-39
2022/08/26 05:41:19;;;;;;;7.20;1.15;;;19.80;99.90;;;;;;5067152;28;20028;-36
2022/08/26 05:43:45;;;;;;;11.93;0.90;;;19.80;99.90;;;;;;5064744;28;20028;-38
2022/08/26 05:46:11;;;;;;;6.30;1.25;;;19.80;99.90;;;;;;5069376;28;20025;-39
2022/08/26 05:48:37;;;;;;;7.75;1.15;;;19.90;99.90;;;;;;5066263;28;20103;-38
2022/08/26 05:51:08;;;;;;;6.70;1.05;;;19.90;99.90;;;;;;5065713;28;20116;-40
2022/08/26 05:53:35;;;;;;;6.55;1.02;;;20.00;99.90;;;;;;5066060;28;20581;-40
2022/08/26 05:56:02;;;;;;;8.75;1.55;;;20.00;99.90;;;;;;5065561;28;20072;-41
2022/08/26 05:58:28;;;;;;;;;;;20.00;99.90;;;;;;5068499;28;20389;-39
2022/08/26 06:01:04;;;;;;;9.43;0.75;;;20.00;99.90;;;;;;5064514;28;19912;-41
2022/08/26 06:03:32;;;;;;;3.65;0.70;;;20.00;99.90;;;;;;5063944;28;20492;-40
2022/08/26 06:05:57;;;;;;;4.65;0.73;;;20.10;99.90;;;;;;5065865;28;20017;-39
2022/08/26 06:08:23;;;;;;;6.90;0.70;;;20.20;99.90;;;;;;5066745;28;20044;-37
2022/08/26 06:10:51;;;;;;;4.68;1.65;;;20.20;99.90;;;;;;5065310;28;20052;-37
2022/08/26 06:13:19;;;;;;;5.10;1.27;;;20.20;99.90;;;;;;5064439;28;20029;-43
2022/08/26 06:15:47;;;;;;;11.77;1.52;;;20.30;99.90;;;;;;5067453;28;20032;-72
2022/08/26 06:18:14;;;;;;;4.75;0.65;;;20.30;99.90;;;;;;5063352;28;20135;-38
2022/08/26 06:20:59;;;;;;;3.53;0.85;;;20.20;99.90;;;;;;5063928;28;20085;-39
2022/08/26 06:26:15;;;;;;;5.57;0.83;;;20.20;99.90;;;;;;5063735;28;20508;-40
2022/08/26 06:28:42;;;;;;;2.30;0.70;;;20.20;99.90;;;;;;5062920;28;20278;-33
2022/08/26 06:31:08;;;;;;;2.13;0.77;;;20.20;99.90;;;;;;5056892;28;20037;-34
2022/08/26 06:33:34;;;;;;;3.60;0.80;;;20.30;99.90;;;;;;5063612;28;20111;-36
2022/08/26 06:36:00;;;;;;;5.97;1.23;;;20.40;99.90;;;;;;5062158;28;20529;-38
2022/08/26 06:38:25;;;;;;;4.47;1.17;;;20.40;99.90;;;;;;5061578;28;20116;-36
2022/08/26 06:40:53;;;;;;;2.15;0.80;;;20.50;99.90;;;;;;5059678;28;20028;-38
2022/08/26 06:43:22;;;;;;;4.68;1.02;;;20.50;99.90;;;;;;5062538;28;20021;-34
2022/08/26 06:45:48;;;;;;;6.95;1.15;;;20.50;99.90;;;;;;5055830;28;20025;-39
2022/08/26 06:48:17;;;;;;;6.68;0.75;;;20.60;99.90;;;;;;5059111;28;20483;-35
2022/08/26 06:50:43;;;;;;;6.05;1.73;;;20.60;99.90;;;;;;5058083;28;20110;-33
2022/08/26 06:53:12;;;;;;;11.45;0.80;;;20.50;99.90;;;;;;5059230;28;20353;-38
2022/08/26 06:55:42;;;;;;;8.57;1.95;;;20.50;99.90;;;;;;5056528;28;20028;-34
2022/08/26 06:58:09;;;;;;;6.53;0.70;;;20.50;99.90;;;;;;5061798;28;20032;-32
2022/08/26 07:00:35;;;;;;;1.63;0.73;;;20.60;99.90;;;;;;5063410;28;20124;-36
2022/08/26 07:03:02;;;;;;;4.55;0.93;;;20.70;99.90;;;;;;5058285;28;20028;-32
2022/08/26 07:05:28;;;;;;;7.00;0.80;;;20.70;99.90;;;;;;5062238;28;20075;-33
2022/08/26 07:07:55;;;;;;;3.33;0.50;;;20.80;99.90;;;;;;5067506;28;20029;-39
2022/08/26 07:10:21;;;;;;;1.40;0.60;;;20.70;99.90;;;;;;5059293;28;20107;-35
2022/08/26 07:12:48;;;;;;;7.75;1.10;;;20.70;99.90;;;;;;5062560;28;20162;-35
2022/08/26 07:15:14;;;;;;;8.50;1.20;;;20.60;99.90;;;;;;5059403;28;20025;-34
2022/08/26 07:17:40;;;;;;;2.17;1.02;;;20.50;99.90;;;;;;5058723;28;20037;-39
2022/08/26 07:20:07;;;;;;;2.10;1.02;;;20.50;99.90;;;;;;5065974;28;20025;-35
2022/08/26 07:22:35;;;;;;;3.10;0.57;;;20.50;99.90;;;;;;5063028;28;20052;-36
2022/08/26 07:25:02;;;;;;;6.30;0.70;;;20.50;99.90;;;;;;5065770;28;20484;-37
2022/08/26 07:27:28;;;;;;;7.90;0.70;;;20.40;99.90;;;;;;5066503;28;20092;-33
2022/08/26 07:29:57;;;;;;;8.32;0.77;;;20.40;99.90;;;;;;5063972;28;20112;-34
2022/08/26 07:32:22;;;;;;;1.20;0.35;;;20.40;99.90;;;;;;5064001;28;20032;-33
2022/08/26 07:34:48;;;;;;;4.22;1.17;;;20.40;99.90;;;;;;5064269;28;20103;-37
2022/08/26 07:37:14;;;;;;;2.20;0.80;;;20.40;99.90;;;;;;5066493;28;20384;-35
2022/08/26 07:39:40;;;;;;;3.78;0.80;;;20.30;99.90;;;;;;5057753;28;20040;-32
2022/08/26 07:42:07;;;;;;;1.40;0.70;;;20.30;99.90;;;;;;5061098;28;20385;-37
2022/08/26 07:44:35;;;;;;;10.98;0.82;;;20.40;99.90;;;;;;5062164;28;20048;-33
2022/08/26 07:47:01;;;;;;;;;;;20.40;99.90;;;;;;5070533;28;20031;-39
2022/08/26 07:49:26;;;;;;;3.33;0.55;;;20.40;99.90;;;;;;5061798;28;19904;-32
2022/08/26 07:51:53;;;;;;;5.82;1.42;;;20.40;99.90;;;;;;5071058;28;20086;-53
2022/08/26 07:54:19;;;;;;;4.15;0.68;;;20.40;99.90;;;;;;5061952;28;20025;-35
2022/08/26 07:56:47;;;;;;;5.93;0.68;;;20.40;99.90;;;;;;5069158;28;20128;-32
2022/08/26 07:59:13;;;;;;;3.20;0.82;;;20.40;99.90;;;;;;5064832;28;20128;-40
2022/08/26 08:01:39;;;;;;;0.68;0.40;;;20.40;99.90;;;;;;5068485;28;20036;-33
2022/08/26 08:04:06;;;;;;;10.05;1.35;;;20.40;99.90;;;;;;5059025;28;20021;-34
2022/08/26 08:06:32;;;;;;;3.65;0.88;;;20.40;99.90;;;;;;5058049;28;20033;-35
2022/08/26 08:08:59;;;;;;;5.23;0.53;;;20.50;99.90;;;;;;5063006;28;20020;-37
2022/08/26 08:11:28;;;;;;;3.85;0.55;;;20.50;99.90;;;;;;5057056;28;20033;-41
2022/08/26 08:13:54;;;;;;;4.93;0.85;;;20.40;99.90;;;;;;5053364;28;20057;-32
2022/08/26 08:16:20;;;;;;;4.75;0.70;;;20.40;99.90;;;;;;5061978;28;20028;-37
2022/08/26 08:18:45;;;;;;;5.25;0.60;;;20.40;99.90;;;;;;5059717;28;20032;-34
2022/08/26 08:21:11;;;;;;;3.28;0.57;;;20.50;99.90;;;;;;5058659;28;20024;-38
2022/08/26 08:23:38;;;;;;;3.05;0.55;;;20.60;99.90;;;;;;5058110;28;20023;-40
2022/08/26 08:26:07;;;;;;;1.77;0.63;;;20.70;99.90;;;;;;5052650;28;20491;-33
2022/08/26 08:28:33;;;;;;;1.50;0.50;;;20.70;99.90;;;;;;5062935;28;20017;-36
2022/08/26 08:30:59;;;;;;;3.10;0.55;;;20.80;99.90;;;;;;5058758;28;20502;-36
2022/08/26 08:33:25;;;;;;;2.33;0.40;;;20.80;99.90;;;;;;5063894;28;20032;-36
2022/08/26 08:35:51;;;;;;;9.93;0.70;;;20.80;99.90;;;;;;5063257;28;20021;-33
2022/08/26 08:38:16;;;;;;;4.80;0.77;;;20.90;99.90;;;;;;5058852;28;20523;-38
2022/08/26 08:40:44;;;;;;;0.43;0.30;;;20.90;99.90;;;;;;5065531;28;20051;-33
2022/08/26 08:43:40;;;;;;;8.40;0.82;;;20.90;99.90;;;;;;5057004;28;20469;-38
2022/08/26 08:46:13;;;;;;;7.77;1.23;;;20.90;99.90;;;;;;5064743;28;20017;-35
2022/08/26 08:48:51;;;;;;;6.22;1.35;;;21.00;99.90;;;;;;5063595;28;20840;-33
2022/08/26 08:51:33;;;;;;;3.30;1.25;;;21.00;99.90;;;;;;5062722;28;20461;-39
2022/08/26 08:54:00;;;;;;;2.15;0.68;;;21.00;99.90;;;;;;5058162;28;20018;-31
2022/08/26 08:56:39;;;;;;;0.77;0.55;;;21.10;99.90;;;;;;5063070;28;20049;-48
2022/08/26 08:59:24;;;;;;;3.00;0.57;;;21.30;99.90;;;;;;5062292;28;20032;-43
2022/08/26 09:02:28;;;;;;;3.47;0.52;;;21.40;99.90;;;;;;5058554;28;20024;-36
2022/08/26 09:05:13;;;;;;;9.05;0.55;;;21.40;99.90;;;;;;5033723;28;20087;-31
2022/08/26 09:07:43;;;;;;;4.85;0.60;;;21.20;99.90;;;;;;5061314;28;20017;-32
2022/08/26 09:10:30;;;;;;;2.50;0.52;;;21.10;99.90;;;;;;5063126;28;20107;-38
2022/08/26 09:12:56;;;;;;;2.80;0.65;;;21.10;99.90;;;;;;5057624;28;20321;-42
2022/08/26 09:15:49;;;;;;;1.10;0.35;;;21.10;99.90;;;;;;5062732;28;20039;-36
2022/08/26 09:18:24;;;;;;;1.92;0.80;;;21.10;99.90;;;;;;5060426;28;20165;-33
2022/08/26 09:21:03;;;;;;;1.45;0.30;;;20.90;99.90;;;;;;5059623;28;20398;-38
2022/08/26 09:23:34;;;;;;;2.20;0.40;;;20.80;99.90;;;;;;5058104;28;20107;-34
2022/08/26 09:26:17;;;;;;;9.65;1.42;;;20.90;99.90;;;;;;5059447;28;20500;-32
2022/08/26 09:29:04;;;;;;;2.95;0.60;;;20.80;99.90;;;;;;5061571;28;20025;-34
2022/08/26 09:31:32;;;;;;;2.35;0.50;;;20.70;99.90;;;;;;5062758;28;20442;-32
2022/08/26 09:34:12;;;;;;;2.63;0.60;;;20.80;99.90;;;;;;5059269;28;20028;-38
2022/08/26 09:36:43;;;;;;;5.43;0.57;;;20.80;99.90;;;;;;5063185;28;20105;-41
2022/08/26 09:39:31;;;;;;;1.63;0.47;;;20.70;99.90;;;;;;5059041;28;20571;-31
2022/08/26 09:42:03;;;;;;;8.23;0.50;;;20.70;99.90;;;;;;5060146;28;20033;-32
2022/08/26 09:44:30;;;;;;;0.40;0.38;;;20.70;99.90;;;;;;5063499;28;20024;-31
2022/08/26 09:47:03;;;;;;;0.60;0.22;;;20.70;99.90;;;;;;5061969;28;20025;-38
2022/08/26 09:49:33;;;;;;;4.70;0.60;;;20.70;99.90;;;;;;5055035;28;20036;-32
2022/08/26 09:52:10;;;;;;;8.13;0.98;;;20.70;99.90;;;;;;5060062;28;20077;-35
2022/08/26 09:54:37;;;;;;;2.85;1.08;;;20.70;99.90;;;;;;5058674;28;20123;-35
2022/08/26 09:57:33;;;;;;;3.13;0.40;;;20.70;99.90;;;;;;5063641;28;20492;-35
2022/08/26 10:00:00;;;;;;;4.67;0.53;;;20.90;99.90;;;;;;5061568;28;20041;-32
2022/08/26 10:02:31;;;;;;;3.53;0.63;;;20.90;99.90;;;;;;5061392;28;20381;-37
2022/08/26 10:04:59;;;;;;;2.40;0.70;;;21.00;99.90;;;;;;5061576;28;20016;-32
2022/08/26 10:07:37;;;;;;;;;;;21.10;99.90;;;;;;5066822;28;20025;-36
2022/08/26 10:10:08;;;;;;;1.52;0.50;;;21.10;99.90;;;;;;5059699;28;19909;-33
2022/08/26 10:12:41;;;;;;;3.33;0.50;;;21.20;99.90;;;;;;5067673;28;20032;-41
2022/08/26 10:15:09;;;;;;;0.85;0.30;;;21.20;99.90;;;;;;5063005;28;20476;-35
2022/08/26 10:17:38;;;;;;;7.43;1.40;;;21.30;99.90;;;;;;5065282;28;20021;-36
2022/08/26 10:20:18;;;;;;;3.38;0.60;;;21.30;99.90;;;;;;5063728;28;20123;-40
2022/08/26 10:23:08;;;;;;;1.30;0.40;;;21.20;99.90;;;;;;5068367;28;20020;-37
2022/08/26 10:25:57;;;;;;;0.85;0.35;;;21.20;99.90;;;;;;5064237;28;20032;-62
2022/08/26 10:28:35;;;;;;;5.00;0.45;;;21.30;99.90;;;;;;5053791;28;20039;-38
2022/08/26 10:31:26;;;;;;;0.70;0.38;;;21.20;99.90;;;;;;5066386;28;20059;-39
2022/08/26 10:33:53;;;;;;;2.20;0.50;;;21.20;99.90;;;;;;5065061;28;20115;-39
2022/08/26 10:39:13;;;;;;;4.60;0.80;;;21.20;99.90;;;;;;5065294;28;20054;-39
2022/08/26 10:41:42;;;;;;;2.92;0.32;;;21.20;99.90;;;;;;5065045;28;20044;-38
2022/08/26 10:44:11;;;;;;;2.72;0.50;;;21.20;99.90;;;;;;5064834;28;20052;-39
2022/08/26 10:46:46;;;;;;;6.22;0.50;;;21.30;99.90;;;;;;5062720;28;20320;-38
2022/08/26 10:49:14;;;;;;;3.58;0.77;;;21.30;99.90;;;;;;5057801;28;20040;-38
2022/08/26 10:51:58;;;;;;;5.47;0.70;;;21.40;99.90;;;;;;5063557;28;20459;-36
2022/08/26 10:54:42;;;;;;;3.28;0.70;;;21.50;99.90;;;;;;5060517;28;20020;-34
2022/08/26 10:57:12;;;;;;;0.60;0.28;;;21.60;99.90;;;;;;5062604;28;20053;-36
2022/08/26 10:59:42;;;;;;;1.80;0.40;;;21.60;99.90;;;;;;5062793;28;20527;-38
2022/08/26 11:02:21;;;;;;;0.30;0.30;;;21.50;99.90;;;;;;5065263;28;20028;-38
2022/08/26 11:05:02;;;;;;;4.78;0.57;;;21.40;99.90;;;;;;5063404;28;20099;-37
2022/08/26 11:07:35;;;;;;;3.83;1.85;;;21.50;99.90;;;;;;5063582;28;20025;-39
2022/08/26 11:10:07;;;;;;;2.75;0.80;;;21.40;99.90;;;;;;5060246;28;20041;-38
2022/08/26 11:12:36;;;;;;;2.45;0.60;;;21.40;99.90;;;;;;5062965;28;20372;-40
2022/08/26 11:15:07;;;;;;;0.90;0.80;;;21.50;99.90;;;;;;5060583;28;20424;-39
2022/08/26 11:17:45;;;;;;;2.95;0.65;;;21.50;99.90;;;;;;5061701;28;20029;-39
2022/08/26 11:20:33;;;;;;;2.72;0.68;;;21.50;99.90;;;;;;5065826;28;20093;-37
2022/08/26 11:23:25;;;;;;;3.78;0.85;;;21.50;99.90;;;;;;5065061;28;20035;-39
2022/08/26 11:25:59;;;;;;;4.20;0.40;;;21.60;99.90;;;;;;5063336;28;20503;-37
2022/08/26 11:28:39;;;;;;;2.33;0.50;;;21.60;99.90;;;;;;5067276;28;20590;-35
2022/08/26 11:34:13;;;;;;;1.55;0.90;;;21.70;99.90;;;;;;5064111;28;20043;-45
2022/08/26 11:36:53;;;;;;;5.65;0.93;;;21.80;99.90;;;;;;5067636;28;20399;-39
2022/08/26 11:39:21;;;;;;;10.75;2.42;;;21.90;99.90;;;;;;5062397;28;20035;-49
2022/08/26 11:41:51;;;;;;;7.45;0.82;;;21.90;99.90;;;;;;5066538;28;20017;-38
2022/08/26 11:44:26;;;;;;;4.88;0.93;;;21.90;99.90;;;;;;5061976;28;20519;-50
2022/08/26 11:46:55;;;;;;;2.15;0.63;;;21.80;99.90;;;;;;5064850;28;20134;-56
2022/08/26 11:49:21;;;;;;;4.30;0.88;;;21.80;99.90;;;;;;5064914;28;20109;-40
2022/08/26 11:51:47;;;;;;;3.17;0.85;;;21.80;99.90;;;;;;5063474;28;20066;-38
2022/08/26 11:54:19;;;;;;;8.13;1.20;;;21.60;99.90;;;;;;5064513;28;20509;-36
2022/08/26 11:56:47;;;;;;;3.95;1.00;;;21.50;99.90;;;;;;5061146;28;20055;-34
2022/08/26 11:59:32;;;;;;;2.60;0.90;;;21.40;99.90;;;;;;5057287;28;20113;-32
2022/08/26 12:01:59;;;;;;;2.95;1.15;;;21.40;99.90;;;;;;5060581;28;20028;-32
2022/08/26 12:04:25;;;;;;;;;;;21.30;99.90;;;;;;5055762;28;20509;-34
2022/08/26 12:06:51;;;;;;;1.05;0.77;;;21.20;99.90;;;;;;5062039;28;19909;-35
2022/08/26 12:09:28;;;;;;;1.70;0.70;;;21.20;99.90;;;;;;5061131;28;20025;-34
2022/08/26 12:12:08;;;;;;;2.92;0.88;;;21.20;99.90;;;;;;5061322;28;20020;-33
2022/08/26 12:14:34;;;;;;;9.77;2.30;;;21.30;99.90;;;;;;5060889;28;20052;-32
2022/08/26 12:17:12;;;;;;;5.65;0.75;;;21.30;99.90;;;;;;5063809;28;20059;-31
2022/08/26 12:19:38;;;;;;;3.00;0.65;;;21.40;99.90;;;;;;5060367;28;20380;-37
2022/08/26 12:22:19;;;;;;;5.68;0.82;;;21.40;99.90;;;;;;5064933;28;20023;-35
2022/08/26 12:24:57;;;;;;;2.17;0.70;;;21.40;99.90;;;;;;5069155;28;20495;-31
2022/08/26 12:27:31;;;;;;;5.18;1.67;;;21.40;99.90;;;;;;5061828;28;20024;-32
2022/08/26 12:30:16;;;;;;;2.97;0.80;;;21.50;99.90;;;;;;5060702;28;20025;-31
2022/08/26 12:33:04;;;;;;;4.55;0.82;;;21.50;99.90;;;;;;5062963;28;20033;-38
2022/08/26 12:35:30;;;;;;;2.00;0.88;;;21.60;99.90;;;;;;5063078;28;20028;-36
2022/08/26 12:37:56;;;;;;;1.90;0.70;;;21.60;99.90;;;;;;5058560;28;20167;-33
2022/08/26 12:40:35;;;;;;;2.05;0.60;;;21.60;99.90;;;;;;5063052;28;20020;-49
2022/08/26 12:43:04;;;;;;;0.98;0.60;;;21.50;99.90;;;;;;5061834;28;20028;-37
2022/08/26 12:45:31;;;;;;;2.92;1.02;;;21.60;99.90;;;;;;5066420;28;20472;-37
2022/08/26 12:47:58;;;;;;;;;;;21.50;99.90;;;;;;5065670;28;20032;-37
2022/08/26 12:50:30;;;;;;;6.38;0.70;;;21.50;99.90;;;;;;5065138;28;19908;-36
2022/08/26 12:53:09;;;;;;;3.58;0.90;;;21.60;99.90;;;;;;5058959;28;20483;-40
2022/08/26 12:55:41;;;;;;;2.17;1.00;;;21.70;99.90;;;;;;5058885;28;20032;-38
2022/08/26 12:58:22;;;;;;;3.25;0.63;;;21.70;99.90;;;;;;5062107;28;20029;-40
2022/08/26 13:00:53;;;;;;;2.72;0.80;;;21.60;99.90;;;;;;5062385;28;20488;-37
2022/08/26 13:03:31;;;;;;;4.03;1.10;;;21.60;99.90;;;;;;5057284;28;20465;-40
2022/08/26 13:06:14;;;;;;;2.35;0.55;;;21.50;99.90;;;;;;5061738;28;20473;-38
2022/08/26 13:08:42;;;;;;;4.95;1.92;;;21.60;99.90;;;;;;5062671;28;20025;-43
2022/08/26 13:11:11;;;;;;;3.40;0.70;;;21.60;99.90;;;;;;5064357;28;20503;-37
2022/08/26 13:13:37;;;;;;;4.10;1.00;;;21.50;99.90;;;;;;5065476;28;20032;-39